Time;durP1;ratioP1;P1;durP2;ratioP2;P2;SDS_P1;SDS_P2;PMS_P1;PMS_P2;Temp;Humidity;BMP_temperature;BMP_pressure;BME280_temperature;BME280_humidity;BME280_pressure;Samples;Min_cycle;Max_cycle;Signal;HPM_P1;HPM_P2
2022/03/30 00:02:10;;;;;;;6.07;2.03;;;;;;;0.74;95.69;100009.31;4959939;28;20077;-82
2022/03/30 00:04:38;;;;;;;4.00;1.97;;;;;;;0.74;95.58;100012.78;4981129;28;20046;-81
2022/03/30 00:07:05;;;;;;;6.83;2.40;;;;;;;0.72;95.60;100004.13;4986562;28;20093;-82
2022/03/30 00:09:35;;;;;;;12.93;2.80;;;;;;;0.72;95.41;100001.53;5001448;28;20126;-81
2022/03/30 00:12:01;;;;;;;5.03;1.87;;;;;;;0.71;96.21;100004.97;4987841;28;20105;-82
2022/03/30 00:14:28;;;;;;;7.67;2.30;;;;;;;0.69;96.06;99998.03;5002308;28;20049;-82
2022/03/30 00:16:55;;;;;;;6.70;2.00;;;;;;;0.70;96.46;99994.56;4971829;28;20042;-82
2022/03/30 00:19:21;;;;;;;4.43;2.27;;;;;;;0.70;96.41;100005.84;4969664;28;20504;-81
2022/03/30 00:21:48;;;;;;;4.37;2.10;;;;;;;0.68;96.40;99998.91;4984335;28;20418;-81
2022/03/30 00:24:15;;;;;;;3.17;2.20;;;;;;;0.67;96.74;100002.31;4967641;28;20057;-82
2022/03/30 00:26:41;;;;;;;4.63;2.00;;;;;;;0.65;96.88;100004.91;4969989;28;20042;-82
2022/03/30 00:29:08;;;;;;;5.30;1.93;;;;;;;0.64;97.18;100004.91;5000707;28;20448;-81
2022/03/30 00:31:35;;;;;;;6.93;2.30;;;;;;;0.62;97.27;99999.72;5072333;23;20050;-77
2022/03/30 00:34:02;;;;;;;6.50;2.00;;;;;;;0.61;97.47;99999.69;4992661;28;20120;-77
2022/03/30 00:36:28;;;;;;;4.97;2.10;;;;;;;0.57;97.71;100001.38;4988875;28;20450;-77
2022/03/30 00:38:55;;;;;;;6.33;2.13;;;;;;;0.54;98.33;100001.38;4971672;28;20108;-77
2022/03/30 00:41:22;;;;;;;5.30;2.07;;;;;;;0.54;98.62;100006.56;4973431;28;20050;-77
2022/03/30 00:43:48;;;;;;;5.90;2.27;;;;;;;0.54;98.37;99994.44;5004770;28;20039;-77
2022/03/30 00:46:17;;;;;;;3.47;1.90;;;;;;;0.53;98.52;100003.09;5005987;28;20491;-77
2022/03/30 00:48:44;;;;;;;5.23;1.57;;;;;;;0.53;98.35;99997.91;4988022;28;20515;-77
2022/03/30 00:51:11;;;;;;;4.30;2.27;;;;;;;0.54;98.31;99996.16;5005553;28;20038;-77
2022/03/30 00:53:37;;;;;;;7.20;2.20;;;;;;;0.53;98.40;99997.91;4971292;28;20829;-77
2022/03/30 00:56:05;;;;;;;4.73;2.40;;;;;;;0.52;98.41;100003.09;4973183;28;20042;-77
2022/03/30 00:58:33;;;;;;;4.70;2.17;;;;;;;0.52;98.52;100000.47;4986239;28;20054;-77
2022/03/30 01:01:00;;;;;;;3.57;1.83;;;;;;;0.50;97.94;99996.97;5002535;28;20106;-77
2022/03/30 01:03:26;;;;;;;5.30;2.63;;;;;;;0.51;98.33;99997.00;4973276;28;20053;-77
2022/03/30 01:05:53;;;;;;;6.70;1.90;;;;;;;0.47;97.49;99990.03;4991173;28;20038;-77
2022/03/30 01:08:20;;;;;;;8.73;2.30;;;;;;;0.48;97.70;99996.09;4982192;28;20050;-77
2022/03/30 01:10:47;;;;;;;6.30;2.40;;;;;;;0.43;97.98;99982.22;4973725;28;20051;-78
2022/03/30 01:13:14;;;;;;;7.47;2.33;;;;;;;0.45;97.46;99980.50;4983955;28;20057;-78
2022/03/30 01:15:40;;;;;;;4.43;1.80;;;;;;;0.44;97.37;99990.00;4977713;28;20416;-76
2022/03/30 01:18:07;;;;;;;6.07;2.43;;;;;;;0.38;97.62;99984.75;4976170;28;20042;-77
2022/03/30 01:20:34;;;;;;;7.53;3.23;;;;;;;0.38;98.27;99982.16;4977251;28;20043;-76
2022/03/30 01:23:01;;;;;;;5.27;2.00;;;;;;;0.32;98.27;99976.00;4973839;28;20042;-78
2022/03/30 01:25:27;;;;;;;3.67;1.77;;;;;;;0.24;98.80;99976.81;4973476;28;20062;-76
2022/03/30 01:27:54;;;;;;;3.73;1.70;;;;;;;0.21;99.02;99975.91;4974953;28;20057;-75
2022/03/30 01:33:07;;;;;;;6.23;2.20;;;;;;;0.08;99.37;99968.84;4979139;28;20057;-76
2022/03/30 01:35:35;;;;;;;7.03;2.67;;;;;;;0.18;98.99;99968.97;4979548;28;20047;-76
2022/03/30 01:38:02;;;;;;;7.30;2.87;;;;;;;0.17;98.90;99976.72;5000067;28;20572;-77
2022/03/30 01:40:29;;;;;;;5.60;2.13;;;;;;;0.11;99.42;99968.88;4958134;28;20047;-75
2022/03/30 01:42:55;;;;;;;6.00;2.40;;;;;;;0.10;99.09;99968.03;4976880;28;20050;-76
2022/03/30 01:45:22;;;;;;;7.80;2.70;;;;;;;0.08;99.38;99967.09;4991377;28;20395;-76
2022/03/30 01:47:58;;;;;;;4.60;2.30;;;;;;;-0.05;100.00;99960.94;4993539;28;20054;-76
2022/03/30 01:50:27;;;;;;;5.37;2.10;;;;;;;-0.08;100.00;99962.63;4992709;28;20073;-75
2022/03/30 01:52:55;;;;;;;4.83;1.87;;;;;;;-0.07;100.00;99964.38;4978608;28;20502;-76
2022/03/30 01:55:22;;;;;;;5.43;2.20;;;;;;;-0.13;100.00;99967.75;4982636;28;20497;-77
2022/03/30 01:57:48;;;;;;;4.03;2.00;;;;;;;-0.16;100.00;99966.88;4978117;28;20047;-76
2022/03/30 02:00:17;;;;;;;5.60;2.10;;;;;;;-0.17;100.00;99972.88;4978010;28;20046;-75
2022/03/30 02:02:44;;;;;;;6.60;2.13;;;;;;;-0.19;100.00;99972.00;4950740;28;20038;-76
2022/03/30 02:05:11;;;;;;;3.80;2.13;;;;;;;-0.21;100.00;99968.53;4992236;28;20073;-77
2022/03/30 02:07:39;;;;;;;8.03;2.03;;;;;;;-0.19;100.00;99965.09;4981470;28;20043;-76
2022/03/30 02:10:07;;;;;;;5.07;2.07;;;;;;;-0.18;100.00;99968.56;4976057;28;20053;-76
2022/03/30 02:12:34;;;;;;;4.07;1.90;;;;;;;-0.21;100.00;99966.81;4992131;28;20042;-76
2022/03/30 02:15:02;;;;;;;6.07;1.80;;;;;;;-0.25;100.00;99954.66;4987462;28;20109;-77
2022/03/30 02:17:29;;;;;;;3.93;2.03;;;;;;;-0.25;100.00;99958.94;4970901;28;20050;-76
2022/03/30 02:19:56;;;;;;;4.57;2.83;;;;;;;-0.26;100.00;99963.25;4991484;28;20054;-76
2022/03/30 02:22:22;;;;;;;4.57;2.13;;;;;;;-0.26;100.00;99955.47;4968084;28;20469;-77
2022/03/30 02:24:50;;;;;;;6.00;2.00;;;;;;;-0.24;100.00;99956.38;4971210;28;20039;-77
2022/03/30 02:27:19;;;;;;;6.93;3.43;;;;;;;-0.21;100.00;99963.34;4991005;28;20050;-77
2022/03/30 02:29:50;;;;;;;5.00;1.90;;;;;;;-0.18;100.00;99953.84;4990333;28;20043;-77
2022/03/30 02:32:21;;;;;;;4.07;2.00;;;;;;;-0.19;100.00;99957.28;4975905;28;20066;-77
2022/03/30 02:34:48;;;;;;;3.50;1.83;;;;;;;-0.19;100.00;99962.50;4983149;28;20054;-76
2022/03/30 02:37:14;;;;;;;6.40;2.20;;;;;;;-0.20;100.00;99955.56;4989721;28;20049;-76
2022/03/30 02:39:41;;;;;;;3.80;2.10;;;;;;;-0.22;100.00;99959.00;5006920;28;20042;-76
2022/03/30 02:42:08;;;;;;;6.17;2.80;;;;;;;-0.22;100.00;99961.59;4955999;28;20054;-77
2022/03/30 02:44:35;;;;;;;8.03;2.97;;;;;;;-0.20;100.00;99955.56;4984853;28;20051;-76
2022/03/30 02:47:03;;;;;;;8.03;3.10;;;;;;;-0.23;100.00;99952.94;4989280;28;20039;-77
2022/03/30 02:49:30;;;;;;;5.77;2.00;;;;;;;-0.26;100.00;99955.47;4976103;28;20038;-77
2022/03/30 02:51:57;;;;;;;8.73;2.27;;;;;;;-0.25;100.00;99959.84;4987037;28;20050;-76
2022/03/30 02:54:26;;;;;;;4.33;2.00;;;;;;;-0.21;100.00;99958.13;4979880;28;20256;-76
2022/03/30 02:56:53;;;;;;;4.63;2.30;;;;;;;-0.23;100.00;99952.94;4960452;28;20046;-76
2022/03/30 02:59:20;;;;;;;7.13;2.07;;;;;;;-0.24;100.00;99959.00;4956997;28;20047;-77
2022/03/30 03:01:47;;;;;;;4.53;2.00;;;;;;;-0.24;100.00;99958.13;4981756;28;20049;-75
2022/03/30 03:04:14;;;;;;;5.17;2.03;;;;;;;-0.23;100.00;99958.13;4984224;28;20126;-76
2022/03/30 03:06:41;;;;;;;10.37;2.57;;;;;;;-0.19;100.00;99959.91;4973393;28;20053;-77
2022/03/30 03:09:08;;;;;;;4.87;2.10;;;;;;;-0.16;100.00;99964.28;4957873;28;20085;-76
2022/03/30 03:11:35;;;;;;;8.23;2.53;;;;;;;-0.16;100.00;99954.75;4972615;28;20048;-77
2022/03/30 03:14:05;;;;;;;4.10;2.40;;;;;;;-0.19;100.00;99952.09;4984188;28;20073;-77
2022/03/30 03:16:33;;;;;;;5.13;2.10;;;;;;;-0.23;100.00;99955.53;4959778;28;20042;-77
2022/03/30 03:19:00;;;;;;;6.30;2.67;;;;;;;-0.21;100.00;99960.72;4987492;28;20501;-76
2022/03/30 03:21:26;;;;;;;5.93;2.07;;;;;;;-0.27;100.00;99951.16;4974427;28;20042;-75
2022/03/30 03:23:53;;;;;;;5.77;2.70;;;;;;;-0.24;100.00;99953.78;4977135;28;20047;-77
2022/03/30 03:26:20;;;;;;;7.33;2.07;;;;;;;-0.22;100.00;99953.81;4971670;28;20050;-78
2022/03/30 03:28:47;;;;;;;4.37;2.00;;;;;;;-0.22;100.00;99949.47;5003609;28;20054;-77
2022/03/30 03:31:13;;;;;;;5.57;2.00;;;;;;;-0.15;100.00;99947.84;5005287;28;20069;-78
2022/03/30 03:33:40;;;;;;;7.57;2.20;;;;;;;-0.13;100.00;99940.94;4974324;28;20053;-76
2022/03/30 03:36:07;;;;;;;7.07;2.13;;;;;;;-0.09;100.00;99945.28;4962310;28;20077;-77
2022/03/30 03:38:34;;;;;;;8.23;2.57;;;;;;;-0.08;100.00;99941.88;4973633;28;20057;-75
2022/03/30 03:41:00;;;;;;;6.43;2.23;;;;;;;-0.10;100.00;99940.94;4973633;28;20077;-76
2022/03/30 03:43:27;;;;;;;6.03;2.10;;;;;;;-0.10;100.00;99940.94;4989262;28;20042;-76
2022/03/30 03:45:55;;;;;;;6.03;2.60;;;;;;;-0.07;100.00;99946.19;4989503;28;20050;-77
2022/03/30 03:48:21;;;;;;;9.23;2.40;;;;;;;-0.10;100.00;99946.13;4970210;28;20133;-77
2022/03/30 03:50:48;;;;;;;7.73;2.57;;;;;;;-0.02;100.00;99947.09;4968608;28;20047;-76
2022/03/30 03:53:15;;;;;;;6.23;3.30;;;;;;;0.05;100.00;99953.22;4985441;28;20101;-77
2022/03/30 03:55:41;;;;;;;8.20;2.67;;;;;;;0.00;100.00;99955.81;4988516;28;20034;-76
2022/03/30 03:58:09;;;;;;;5.67;2.40;;;;;;;-0.15;100.00;99953.91;4999912;28;20042;-77
2022/03/30 04:00:35;;;;;;;4.47;2.17;;;;;;;-0.14;100.00;99950.44;4970663;28;20527;-76
2022/03/30 04:03:03;;;;;;;6.10;2.20;;;;;;;-0.16;100.00;99946.97;4973656;28;20050;-77
2022/03/30 04:05:31;;;;;;;5.30;2.17;;;;;;;-0.24;100.00;99953.78;4973411;28;20515;-76
2022/03/30 04:07:57;;;;;;;5.87;2.33;;;;;;;-0.29;100.00;99951.13;4961946;28;20049;-76
2022/03/30 04:10:24;;;;;;;3.70;1.93;;;;;;;-0.32;100.00;99951.09;4950996;28;20089;-76
2022/03/30 04:12:51;;;;;;;4.63;2.27;;;;;;;-0.34;100.00;99950.22;4969233;28;20104;-76
2022/03/30 04:15:18;;;;;;;4.00;1.83;;;;;;;-0.30;100.00;99945.94;4989400;28;20039;-76
2022/03/30 04:17:46;;;;;;;6.97;1.90;;;;;;;-0.28;100.00;99952.88;4946001;28;20046;-77
2022/03/30 04:20:16;;;;;;;8.10;2.10;;;;;;;-0.24;100.00;99952.94;4981204;28;20064;-79
2022/03/30 04:22:43;;;;;;;6.20;2.60;;;;;;;-0.31;100.00;99945.06;4970971;28;20050;-78
2022/03/30 04:25:11;;;;;;;8.87;2.47;;;;;;;-0.21;100.00;99947.75;4988007;28;20050;-78
2022/03/30 04:27:49;;;;;;;5.03;2.00;;;;;;;-0.22;100.00;99938.22;4965395;28;20034;-78
2022/03/30 04:30:17;;;;;;;7.00;2.87;;;;;;;-0.20;100.00;99947.78;4989468;28;20087;-78
2022/03/30 04:32:44;;;;;;;5.43;2.20;;;;;;;-0.24;100.00;99947.72;4990711;28;20042;-78
2022/03/30 04:35:12;;;;;;;4.07;2.50;;;;;;;-0.20;100.00;99945.19;4972310;28;20050;-78
2022/03/30 04:37:39;;;;;;;4.37;2.90;;;;;;;-0.20;100.00;99937.38;4975652;28;20046;-78
2022/03/30 04:40:07;;;;;;;9.70;3.00;;;;;;;-0.15;100.00;99937.44;4974108;28;20790;-78
2022/03/30 04:42:34;;;;;;;6.47;2.10;;;;;;;-0.32;100.00;99937.25;4990647;28;20042;-78
2022/03/30 04:45:01;;;;;;;5.77;2.20;;;;;;;-0.43;100.00;99946.63;4976900;28;20043;-78
2022/03/30 04:47:28;;;;;;;6.03;2.40;;;;;;;-0.44;100.00;99937.09;4961378;28;20054;-78
2022/03/30 04:49:54;;;;;;;7.33;2.50;;;;;;;-0.42;100.00;99938.88;4976530;28;20042;-78
2022/03/30 04:52:21;;;;;;;9.47;2.70;;;;;;;-0.36;100.00;99935.47;4973536;28;20057;-78
2022/03/30 04:54:48;;;;;;;5.03;2.53;;;;;;;-0.38;100.00;99937.19;4988659;28;20132;-78
2022/03/30 04:57:14;;;;;;;5.60;2.40;;;;;;;-0.39;100.00;99935.44;4987616;28;20114;-78
2022/03/30 04:59:43;;;;;;;5.17;2.10;;;;;;;-0.41;100.00;99937.16;5004798;28;20586;-78
2022/03/30 05:02:09;;;;;;;6.33;2.37;;;;;;;-0.45;100.00;99933.63;4972327;28;20503;-78
2022/03/30 05:04:36;;;;;;;5.40;2.13;;;;;;;-0.48;100.00;99938.78;4979349;28;20043;-78
2022/03/30 05:07:03;;;;;;;5.60;2.30;;;;;;;-0.52;100.00;99933.53;5000933;28;20034;-79
2022/03/30 05:09:30;;;;;;;3.93;2.20;;;;;;;-0.52;100.00;99929.22;4986936;28;20030;-78
2022/03/30 05:11:56;;;;;;;7.00;2.07;;;;;;;-0.48;100.00;99927.53;4987512;28;20085;-79
2022/03/30 05:14:23;;;;;;;3.70;2.10;;;;;;;-0.46;100.00;99931.03;4958918;28;20096;-78
2022/03/30 05:16:50;;;;;;;3.87;2.00;;;;;;;-0.43;100.00;99928.47;5000154;28;20042;-78
2022/03/30 05:19:17;;;;;;;7.93;2.83;;;;;;;-0.36;100.00;99932.88;4986817;28;20566;-78
2022/03/30 05:21:44;;;;;;;5.27;2.10;;;;;;;-0.34;100.00;99932.06;4996581;28;20045;-78
2022/03/30 05:24:10;;;;;;;3.93;2.33;;;;;;;-0.29;100.00;99932.97;4984920;28;20042;-78
2022/03/30 05:26:37;;;;;;;5.07;2.47;;;;;;;-0.10;100.00;99928.84;4987002;28;20050;-78
2022/03/30 05:29:04;;;;;;;6.03;2.20;;;;;;;0.13;100.00;99928.22;4987897;28;20042;-78
2022/03/30 05:31:30;;;;;;;3.47;1.80;;;;;;;0.19;100.00;99941.28;4965343;28;20047;-78
2022/03/30 05:33:57;;;;;;;4.90;2.40;;;;;;;-0.05;100.00;99937.56;4977051;28;20134;-78
2022/03/30 05:36:24;;;;;;;9.73;2.10;;;;;;;-0.10;100.00;99938.34;4985741;28;20531;-78
2022/03/30 05:38:51;;;;;;;5.17;2.20;;;;;;;-0.05;100.00;99934.09;4980765;28;20183;-78
2022/03/30 05:41:18;;;;;;;4.23;2.50;;;;;;;0.04;100.00;99934.19;4988433;28;20075;-78
2022/03/30 05:43:45;;;;;;;5.20;2.70;;;;;;;0.25;100.00;99930.91;4986819;28;20047;-78
2022/03/30 05:46:12;;;;;;;7.70;3.23;;;;;;;0.29;100.00;99937.91;4974421;28;20043;-78
2022/03/30 05:48:39;;;;;;;7.63;2.40;;;;;;;0.20;100.00;99928.28;5001184;28;20062;-79
2022/03/30 05:51:07;;;;;;;9.40;2.40;;;;;;;0.38;100.00;99932.78;4985406;28;20129;-78
2022/03/30 05:53:34;;;;;;;5.27;2.00;;;;;;;0.35;100.00;99930.16;5009380;28;20042;-78
2022/03/30 05:56:02;;;;;;;7.17;2.43;;;;;;;0.44;100.00;99934.56;4993388;28;20034;-78
2022/03/30 05:58:29;;;;;;;5.53;2.20;;;;;;;0.52;100.00;99933.78;5007623;28;20046;-79
2022/03/30 06:00:56;;;;;;;3.97;2.30;;;;;;;0.66;100.00;99933.00;5001172;28;20042;-78
2022/03/30 06:03:23;;;;;;;5.17;2.53;;;;;;;0.74;100.00;99928.72;4989598;28;20101;-77
2022/03/30 06:05:51;;;;;;;7.37;2.77;;;;;;;0.79;100.00;99929.66;4975448;28;20063;-77
2022/03/30 06:08:17;;;;;;;6.37;3.33;;;;;;;0.81;100.00;99933.13;4968401;28;20050;-76
2022/03/30 06:10:44;;;;;;;5.37;2.00;;;;;;;0.89;100.00;99927.97;4974253;28;20061;-77
2022/03/30 06:13:11;;;;;;;6.00;2.20;;;;;;;0.98;100.00;99926.31;4976058;28;20042;-77
2022/03/30 06:15:38;;;;;;;4.97;1.97;;;;;;;1.12;100.00;99939.41;4974615;28;20121;-77
2022/03/30 06:18:11;;;;;;;5.97;2.13;;;;;;;1.26;100.00;99932.56;4955949;28;20117;-77
2022/03/30 06:20:39;;;;;;;6.40;2.30;;;;;;;1.40;100.00;99937.81;4979226;28;20070;-77
2022/03/30 06:23:06;;;;;;;4.63;2.30;;;;;;;1.49;100.00;99945.66;4990352;28;20034;-78
2022/03/30 06:25:33;;;;;;;5.63;2.30;;;;;;;1.61;100.00;99937.06;4990830;28;20554;-77
2022/03/30 06:28:00;;;;;;;3.57;2.30;;;;;;;1.75;100.00;99937.09;4991850;28;20042;-78
2022/03/30 06:30:27;;;;;;;5.90;2.60;;;;;;;1.85;100.00;99936.25;4969921;28;20093;-77
2022/03/30 06:32:53;;;;;;;3.17;1.77;;;;;;;1.96;100.00;99939.78;4975128;28;20042;-77
2022/03/30 06:35:20;;;;;;;5.00;2.10;;;;;;;2.04;100.00;99938.06;4992912;28;20039;-78
2022/03/30 06:37:47;;;;;;;5.37;2.40;;;;;;;2.06;99.44;99938.94;4974630;28;20049;-78
2022/03/30 06:40:15;;;;;;;8.70;3.10;;;;;;;2.12;97.42;99938.94;4971525;28;20052;-79
2022/03/30 06:42:42;;;;;;;6.50;2.47;;;;;;;2.15;96.92;99927.66;4993557;28;20523;-79
2022/03/30 06:45:10;;;;;;;5.30;1.97;;;;;;;2.25;96.87;99932.00;5006042;28;20043;-79
2022/03/30 06:47:38;;;;;;;12.70;2.60;;;;;;;2.46;96.66;99931.19;4993961;28;20689;-79
2022/03/30 06:50:05;;;;;;;4.80;1.97;;;;;;;2.56;95.61;99932.03;4993173;28;20065;-78
2022/03/30 06:52:35;;;;;;;7.30;2.70;;;;;;;2.82;95.12;99925.94;4976553;28;20496;-79
2022/03/30 10:27:54;;;;;;;4.77;1.97;;;;;;;8.01;48.11;99871.00;5082887;22;20163;-80
2022/03/30 10:30:27;;;;;;;4.73;2.87;;;;;;;8.02;48.16;99862.22;5027726;28;20487;-80
2022/03/30 10:32:55;;;;;;;2.37;1.80;;;;;;;8.37;49.41;99864.03;5017956;28;20129;-80
2022/03/30 10:35:36;;;;;;;2.57;1.50;;;;;;;8.72;45.44;99861.38;4997951;28;20049;-80
2022/03/30 10:38:04;;;;;;;3.47;1.80;;;;;;;8.66;43.98;99865.94;5027623;28;20036;-80
2022/03/30 10:40:31;;;;;;;2.73;1.67;;;;;;;8.78;45.32;99859.50;5008357;28;20041;-80
2022/03/30 10:43:00;;;;;;;3.73;1.60;;;;;;;8.66;43.34;99856.31;5047687;28;20044;-80
2022/03/30 10:45:42;;;;;;;13.93;2.50;;;;;;;8.42;43.64;99855.13;5001241;28;20071;-80
2022/03/30 10:48:23;;;;;;;4.93;1.80;;;;;;;8.15;44.87;99850.47;5013534;28;20049;-80
2022/03/30 10:50:51;;;;;;;8.73;2.20;;;;;;;7.98;45.55;99852.63;5016719;28;20051;-81
2022/03/30 10:53:30;;;;;;;3.60;1.73;;;;;;;8.07;47.28;99853.31;4988061;28;20053;-80
2022/03/30 10:56:15;;;;;;;5.07;1.90;;;;;;;7.72;48.99;99851.47;5015422;28;20040;-83
2022/03/30 10:58:48;;;;;;;4.00;2.00;;;;;;;8.06;49.61;99861.22;5031749;28;20137;-80
2022/03/30 11:01:18;;;;;;;6.00;3.10;;;;;;;7.97;49.64;99846.53;5037086;28;20033;-80
2022/03/30 11:03:59;;;;;;;5.20;2.77;;;;;;;8.00;51.15;99856.13;5001113;28;20055;-81
2022/03/30 11:06:27;;;;;;;6.43;3.50;;;;;;;7.90;50.76;99853.72;5017615;28;20040;-80
2022/03/30 11:08:59;;;;;;;5.17;3.27;;;;;;;7.63;51.47;99851.66;5016582;28;20053;-81
2022/03/30 11:11:34;;;;;;;6.93;3.60;;;;;;;7.61;52.53;99846.44;5004695;28;20075;-80
2022/03/30 11:14:29;;;;;;;5.37;3.50;;;;;;;7.41;52.64;99860.91;4998859;28;20045;-80
2022/03/30 11:17:00;;;;;;;5.28;3.08;;;;;;;7.74;52.35;99862.84;5016604;28;20501;-80
2022/03/30 11:19:57;;;;;;;5.47;3.10;;;;;;;7.78;51.61;99855.72;5018690;28;20429;-80
2022/03/30 11:22:29;;;;;;;6.13;3.00;;;;;;;7.88;52.11;99852.84;5042929;28;20510;-82
2022/03/30 11:25:26;;;;;;;6.23;3.10;;;;;;;8.06;51.21;99850.69;5029858;28;20363;-82
2022/03/30 11:27:59;;;;;;;8.23;4.23;;;;;;;7.85;51.17;99852.94;5031838;28;20044;-80
2022/03/30 11:30:31;;;;;;;7.38;3.78;;;;;;;8.08;50.29;99848.94;5028039;28;20042;-81
2022/03/30 11:33:17;;;;;;;5.53;3.50;;;;;;;8.11;49.68;99847.06;5004917;28;20045;-80
2022/03/30 11:35:46;;;;;;;6.97;3.00;;;;;;;7.92;47.76;99850.19;5031920;28;20041;-80
2022/03/30 11:38:24;;;;;;;4.20;3.07;;;;;;;7.94;46.86;99849.22;4997151;28;20128;-80
2022/03/30 11:41:05;;;;;;;7.90;3.57;;;;;;;7.76;47.20;99844.38;5028436;28;20068;-80
2022/03/30 11:45:12;;;;;;;10.93;3.60;;;;;;;7.76;47.73;99844.38;5028672;28;20399;-80
2022/03/30 11:46:29;;;;;;;5.70;3.20;;;;;;;7.93;46.49;99844.00;5013722;28;20041;-82
2022/03/30 11:49:06;;;;;;;5.83;2.73;;;;;;;7.99;46.92;99839.47;5026628;28;20469;-81
2022/03/30 11:51:33;;;;;;;50.90;8.03;;;;;;;8.13;46.91;99845.25;5013761;28;20092;-80
2022/03/30 11:54:14;;;;;;;5.73;4.00;;;;;;;8.24;45.51;99841.50;5007577;28;20491;-81
2022/03/30 11:56:41;;;;;;;4.00;2.83;;;;;;;8.18;45.70;99846.03;5017439;28;20040;-79
2022/03/30 11:59:08;;;;;;;4.10;2.03;;;;;;;8.36;45.94;99838.63;5018571;28;20041;-80
2022/03/30 12:01:41;;;;;;;3.90;2.10;;;;;;;8.11;41.96;99843.56;5001035;28;20060;-79
2022/03/30 12:04:07;;;;;;;5.07;2.30;;;;;;;7.71;42.29;99843.63;4998441;28;20045;-82
2022/03/30 12:06:34;;;;;;;3.77;2.20;;;;;;;7.80;43.84;99841.63;5019735;28;20029;-81
2022/03/30 12:09:01;;;;;;;3.13;2.10;;;;;;;8.08;42.67;99833.13;5016085;28;20051;-80
2022/03/30 12:11:29;;;;;;;4.50;2.10;;;;;;;8.06;42.24;99840.19;5018093;28;20044;-81
2022/03/30 12:13:59;;;;;;;3.10;2.10;;;;;;;8.15;41.93;99839.97;5031690;28;20049;-79
2022/03/30 12:16:32;;;;;;;12.53;3.00;;;;;;;8.23;43.64;99831.88;5010159;28;20514;-80
2022/03/30 12:19:00;;;;;;;3.85;2.25;;;;;;;8.39;43.20;99826.25;5012123;28;20091;-80
2022/03/30 12:21:28;;;;;;;4.37;2.03;;;;;;;8.49;43.25;99826.00;5019040;28;20541;-80
2022/03/30 12:23:57;;;;;;;4.57;2.40;;;;;;;8.65;42.31;99830.84;5016191;28;20048;-81
2022/03/30 12:26:44;;;;;;;3.17;2.20;;;;;;;8.29;41.07;99829.97;5024420;28;20044;-78
2022/03/30 12:29:14;;;;;;;6.27;2.40;;;;;;;8.21;40.56;99831.06;5012344;28;20052;-80
2022/03/30 12:32:02;;;;;;;5.23;2.30;;;;;;;8.09;41.41;99830.47;5018977;28;20048;-80
2022/03/30 12:34:34;;;;;;;4.80;3.03;;;;;;;8.31;41.88;99829.94;5027860;28;20101;-80
2022/03/30 12:37:03;;;;;;;4.23;2.30;;;;;;;8.38;42.72;99827.16;4983994;28;20045;-80
2022/03/30 12:39:43;;;;;;;5.33;2.80;;;;;;;8.32;41.00;99827.25;5010036;28;20060;-81
2022/03/30 12:42:36;;;;;;;6.60;3.10;;;;;;;8.41;42.44;99821.84;5004686;28;20158;-81
2022/03/30 12:45:08;;;;;;;5.57;3.00;;;;;;;8.28;42.53;99819.50;5026636;28;20107;-80
2022/03/30 12:47:40;;;;;;;6.33;3.20;;;;;;;8.35;43.01;99813.22;5019864;28;20045;-80
2022/03/30 12:50:10;;;;;;;5.10;3.33;;;;;;;8.20;43.65;99814.41;5016276;28;20104;-81
2022/03/30 12:52:42;;;;;;;4.57;3.03;;;;;;;8.32;43.07;99815.88;5011920;28;20099;-80
2022/03/30 12:55:14;;;;;;;4.97;3.50;;;;;;;8.38;42.93;99821.03;4999704;28;20045;-79
2022/03/30 12:57:55;;;;;;;4.20;3.43;;;;;;;8.25;42.52;99815.19;5028324;28;20053;-80
2022/03/30 13:00:25;;;;;;;6.10;3.13;;;;;;;8.34;43.78;99814.09;5029295;28;20103;-82
2022/03/30 13:03:12;;;;;;;4.73;3.03;;;;;;;8.10;42.78;99810.28;5013288;28;20478;-81
2022/03/30 13:05:43;;;;;;;5.53;2.90;;;;;;;8.08;43.84;99807.69;5020831;28;20041;-80
2022/03/30 13:08:13;;;;;;;7.97;2.90;;;;;;;8.11;43.75;99812.00;5008287;28;20096;-79
2022/03/30 13:10:57;;;;;;;5.07;3.40;;;;;;;7.93;43.53;99800.16;5027228;28;20049;-79
2022/03/30 13:13:26;;;;;;;3.25;2.70;;;;;;;8.16;45.64;99808.38;5013859;28;20042;-80
2022/03/30 13:16:05;;;;;;;2.60;1.90;;;;;;;7.89;44.10;99807.25;5000252;28;20128;-80
2022/03/30 13:18:32;;;;;;;4.57;2.43;;;;;;;8.06;43.94;99792.81;4990307;28;20418;-80
2022/03/30 13:21:08;;;;;;;3.00;2.20;;;;;;;7.66;43.41;99799.03;5015758;28;20048;-81
2022/03/30 13:23:38;;;;;;;3.53;2.00;;;;;;;7.61;44.86;99798.25;5036400;28;20524;-79
2022/03/30 13:26:33;;;;;;;3.60;2.17;;;;;;;7.56;44.15;99803.59;5026885;28;20033;-81
2022/03/30 13:29:01;;;;;;;3.07;1.83;;;;;;;7.55;44.09;99808.91;5020259;28;20033;-78
2022/03/30 13:31:27;;;;;;;3.47;1.77;;;;;;;7.51;44.00;99794.97;5013176;28;20048;-82
2022/03/30 13:33:56;;;;;;;2.30;1.50;;;;;;;7.41;44.55;99793.44;5016669;28;20799;-80
2022/03/30 13:36:23;;;;;;;2.73;1.60;;;;;;;7.38;44.69;99798.75;5027767;28;20502;-81
2022/03/30 13:38:52;;;;;;;1.63;1.20;;;;;;;7.37;43.56;99793.53;5038722;28;20620;-78
2022/03/30 13:41:24;;;;;;;3.58;1.42;;;;;;;7.52;44.78;99791.44;4997737;28;20059;-80
2022/03/30 13:43:51;;;;;;;2.70;1.60;;;;;;;7.57;44.86;99794.00;5016441;28;20052;-80
2022/03/30 13:46:19;;;;;;;17.53;2.43;;;;;;;7.11;44.50;99787.06;5020594;28;20072;-82
2022/03/30 13:48:47;;;;;;;2.60;1.30;;;;;;;7.23;45.78;99778.94;5013193;28;20045;-81
2022/03/30 13:51:22;;;;;;;2.80;1.10;;;;;;;7.37;46.17;99786.50;5002966;28;20046;-80
2022/03/30 13:53:49;;;;;;;1.93;1.37;;;;;;;7.44;46.04;99774.97;5013937;28;20046;-81
2022/03/30 13:56:21;;;;;;;2.60;1.50;;;;;;;7.53;45.37;99777.41;5019702;28;20599;-81
2022/03/30 13:58:53;;;;;;;5.30;2.13;;;;;;;7.65;44.56;99776.28;5014927;28;20083;-79
2022/03/30 14:01:22;;;;;;;1.80;1.03;;;;;;;7.62;44.11;99777.19;5017856;28;20041;-81
2022/03/30 14:03:52;;;;;;;3.27;1.40;;;;;;;7.38;43.65;99774.25;5038220;28;20041;-80
2022/03/30 14:06:24;;;;;;;2.77;1.13;;;;;;;7.51;44.50;99768.69;5040522;28;20116;-81
2022/03/30 14:08:52;;;;;;;1.93;1.00;;;;;;;7.29;45.31;99772.66;5022223;28;20041;-81
2022/03/30 14:11:18;;;;;;;2.73;1.10;;;;;;;7.30;43.56;99772.63;5016614;28;20045;-80
2022/03/30 14:13:45;;;;;;;3.37;1.20;;;;;;;7.28;44.92;99771.81;5008390;28;20115;-80
2022/03/30 14:16:13;;;;;;;2.23;1.23;;;;;;;7.46;44.98;99765.28;5020218;28;20457;-81
2022/03/30 14:18:42;;;;;;;7.80;1.70;;;;;;;7.38;43.94;99768.97;5018998;28;20383;-80
2022/03/30 14:21:09;;;;;;;61.30;8.63;;;;;;;7.17;45.49;99762.44;5051890;28;20063;-81
2022/03/30 14:23:36;;;;;;;2.43;1.20;;;;;;;7.34;44.48;99755.94;5015865;28;20068;-81
2022/03/30 14:26:03;;;;;;;2.00;1.17;;;;;;;7.55;43.80;99753.69;5015620;28;20398;-81
2022/03/30 14:28:30;;;;;;;2.30;1.80;;;;;;;7.51;44.14;99758.19;5000867;28;20041;-81
2022/03/30 14:30:59;;;;;;;3.33;2.43;;;;;;;7.36;44.38;99760.28;5033636;28;20478;-80
2022/03/30 14:33:26;;;;;;;3.53;2.50;;;;;;;7.40;43.65;99754.03;5000935;28;20045;-81
2022/03/30 14:35:57;;;;;;;3.80;2.67;;;;;;;7.31;44.18;99756.00;4999588;28;20167;-82
2022/03/30 14:38:24;;;;;;;1.53;1.10;;;;;;;7.40;43.59;99746.16;5028018;28;20955;-81
2022/03/30 14:40:51;;;;;;;1.77;1.10;;;;;;;7.45;44.62;99746.94;5009970;28;20045;-81
2022/03/30 14:43:20;;;;;;;1.23;0.90;;;;;;;7.49;44.12;99740.72;5002058;28;20044;-80
2022/03/30 14:45:47;;;;;;;1.80;0.97;;;;;;;7.38;43.06;99747.97;5019275;28;20421;-81
2022/03/30 14:48:14;;;;;;;1.43;1.03;;;;;;;7.31;43.94;99736.72;5000794;28;20076;-81
2022/03/30 14:50:42;;;;;;;2.50;1.27;;;;;;;7.12;44.01;99744.13;4998585;28;20045;-80
2022/03/30 14:53:09;;;;;;;5.37;1.10;;;;;;;6.83;45.10;99744.75;5001043;23;20403;-78
2022/03/30 14:55:37;;;;;;;2.77;1.30;;;;;;;6.99;45.62;99740.06;4988098;28;20463;-78
2022/03/30 14:58:04;;;;;;;7.03;1.47;;;;;;;6.93;45.11;99732.28;4987963;28;20420;-78
2022/03/30 15:00:31;;;;;;;3.23;1.00;;;;;;;7.02;46.09;99747.84;4972666;28;21014;-78
2022/03/30 15:02:58;;;;;;;2.70;1.13;;;;;;;7.11;46.45;99737.16;4985842;28;20030;-78
2022/03/30 15:05:25;;;;;;;3.17;1.40;;;;;;;7.08;45.72;99742.47;4983545;28;20800;-78
2022/03/30 15:07:52;;;;;;;12.63;2.23;;;;;;;6.75;46.65;99741.41;4970961;28;20038;-78
2022/03/30 15:10:19;;;;;;;3.07;1.30;;;;;;;6.95;47.18;99738.38;4992465;28;20038;-78
2022/03/30 15:12:46;;;;;;;1.97;1.47;;;;;;;6.94;48.07;99734.00;5000659;28;20042;-78
2022/03/30 15:15:12;;;;;;;2.13;1.30;;;;;;;7.12;48.04;99733.63;4987797;28;20041;-78
2022/03/30 15:17:39;;;;;;;3.23;1.50;;;;;;;6.62;47.32;99732.88;4978475;28;20042;-78
2022/03/30 15:20:08;;;;;;;2.37;1.43;;;;;;;6.75;48.99;99737.00;5011374;28;20050;-78